Terminal Aerodrome Forecast
Issued by NWS

Home | Current Version | Previous Version | Text Only | Print | Product List | Glossary On
Versions: 1 2 3 4 5 6 7 8 9 10 11 12
742
FTUS42 TJSJ 211147
TAFJPS
TAF
TJPS 211147Z 2112/2212 00000KT P6SM BKN060
     FM211300 14009KT P6SM FEW025
     FM212100 09008KT P6SM SCT025 SCT050=

USA.gov is the U.S. government's official web portal to all federal, state and local government web resources and services.